Time;durP1;ratioP1;P1;durP2;ratioP2;P2;SDS_P1;SDS_P2;PMS_P1;PMS_P2;Temp;Humidity;BMP_temperature;BMP_pressure;BME280_temperature;BME280_humidity;BME280_pressure;Samples;Min_cycle;Max_cycle;Signal;HPM_P1;HPM_P2
2022/12/07 00:02:05;;;;;;;93.78;21.05;;;5.50;99.90;;;;;;5035934;28;20183;-86
2022/12/07 00:04:39;;;;;;;89.68;21.73;;;5.50;99.90;;;;;;5035802;28;20176;-86
2022/12/07 00:07:31;;;;;;;86.78;22.33;;;5.50;99.90;;;;;;5036320;28;20601;-86
2022/12/07 00:10:04;;;;;;;90.30;24.70;;;5.50;99.90;;;;;;5031710;28;20205;-86
2022/12/07 00:12:42;;;;;;;86.75;21.25;;;5.50;99.90;;;;;;5035866;28;20261;-86
2022/12/07 00:15:14;;;;;;;93.40;23.10;;;5.60;99.90;;;;;;5035765;28;20153;-86
2022/12/07 00:17:48;;;;;;;91.82;22.15;;;5.60;99.90;;;;;;5034824;28;20177;-86
2022/12/07 00:20:16;;;;;;;90.75;23.50;;;5.60;99.90;;;;;;5035698;28;20659;-86
2022/12/07 00:22:42;;;;;;;88.95;22.65;;;5.60;99.90;;;;;;5034389;28;20180;-86
2022/12/07 00:25:08;;;;;;;95.27;25.23;;;5.50;99.90;;;;;;5034235;28;20542;-86
2022/12/07 00:30:46;;;;;;;92.95;24.88;;;5.50;99.90;;;;;;5000256;28;20456;-86
2022/12/07 00:33:15;;;;;;;89.50;21.08;;;5.60;99.90;;;;;;5027892;28;20271;-86
2022/12/07 00:36:36;;;;;;;90.57;23.75;;;5.60;99.90;;;;;;5034408;28;20223;-86
2022/12/07 00:39:11;;;;;;;92.10;22.40;;;5.60;99.90;;;;;;4985701;28;20187;-86
2022/12/07 00:41:40;;;;;;;91.10;22.63;;;5.50;99.90;;;;;;5033214;28;20212;-86
2022/12/07 00:44:06;;;;;;;88.95;23.13;;;5.50;99.90;;;;;;5034634;28;20169;-86
2022/12/07 00:46:51;;;;;;;89.20;22.38;;;5.50;99.90;;;;;;5036712;28;20593;-86
2022/12/07 00:49:23;;;;;;;89.55;23.75;;;5.60;99.90;;;;;;5040102;28;20342;-86
2022/12/07 00:51:54;;;;;;;93.05;24.80;;;5.50;99.90;;;;;;5039062;28;20220;-86
2022/12/07 00:54:32;;;;;;;100.35;23.00;;;5.50;99.90;;;;;;5038357;28;20248;-87
2022/12/07 00:56:58;;;;;;;89.68;24.15;;;5.50;99.90;;;;;;5040569;28;20161;-87
2022/12/07 00:59:24;;;;;;;98.82;24.23;;;5.50;99.90;;;;;;5072285;28;20181;-87
2022/12/07 01:02:06;;;;;;;91.40;23.60;;;5.60;99.90;;;;;;5038393;28;20267;-86
2022/12/07 01:04:35;;;;;;;95.55;27.50;;;5.60;99.90;;;;;;5038814;28;20176;-87
2022/12/07 01:07:04;;;;;;;88.70;21.90;;;5.60;99.90;;;;;;5040343;28;20180;-86
2022/12/07 01:10:15;;;;;;;90.95;25.15;;;5.60;99.90;;;;;;5039768;28;20193;-87
2022/12/07 01:12:16;;;;;;;93.72;24.85;;;5.60;99.90;;;;;;5033840;28;20696;-86
2022/12/07 01:14:42;;;;;;;97.47;27.30;;;5.60;99.90;;;;;;5034468;28;20162;-86
2022/12/07 01:17:14;;;;;;;91.35;23.98;;;5.60;99.90;;;;;;5033724;28;20454;-86
2022/12/07 01:19:53;;;;;;;92.70;24.88;;;5.60;99.90;;;;;;5033194;28;20233;-86
2022/12/07 01:22:30;;;;;;;90.93;23.98;;;5.70;99.90;;;;;;5033569;28;20161;-86
2022/12/07 01:24:58;;;;;;;94.97;23.70;;;5.60;99.90;;;;;;5034965;28;20149;-86
2022/12/07 01:27:27;;;;;;;102.63;24.25;;;5.60;99.90;;;;;;5033420;28;20180;-86
2022/12/07 01:29:52;;;;;;;97.35;26.17;;;5.60;99.90;;;;;;5034192;28;20195;-86
2022/12/07 01:32:20;;;;;;;93.87;25.70;;;5.60;99.90;;;;;;5034361;28;20638;-86
2022/12/07 01:34:51;;;;;;;99.05;25.90;;;5.70;99.90;;;;;;5033108;28;20162;-86
2022/12/07 01:37:27;;;;;;;95.32;24.27;;;5.70;99.90;;;;;;5033015;28;20267;-86
2022/12/07 01:39:53;;;;;;;94.28;23.05;;;5.70;99.90;;;;;;5033318;28;20169;-86
2022/12/07 01:42:25;;;;;;;95.25;22.90;;;5.70;99.90;;;;;;5034923;28;20670;-86
2022/12/07 01:45:18;;;;;;;93.80;25.08;;;5.70;99.90;;;;;;5032927;28;20173;-85
2022/12/07 01:47:52;;;;;;;89.10;22.42;;;5.70;99.90;;;;;;5034091;28;20170;-86
2022/12/07 01:50:18;;;;;;;88.85;22.52;;;5.70;99.90;;;;;;5034222;28;20263;-86
2022/12/07 01:52:59;;;;;;;94.85;24.48;;;5.70;99.90;;;;;;5034045;28;20215;-86
2022/12/07 01:55:26;;;;;;;90.97;23.45;;;5.70;99.90;;;;;;5033019;28;20153;-86
2022/12/07 01:57:58;;;;;;;90.90;24.77;;;5.70;99.90;;;;;;5034316;28;20172;-86
2022/12/07 02:00:24;;;;;;;92.45;22.80;;;5.70;99.90;;;;;;5034113;28;20184;-86
2022/12/07 02:03:17;;;;;;;89.60;23.33;;;5.70;99.90;;;;;;5034203;28;20157;-86
2022/12/07 02:05:43;;;;;;;96.53;24.15;;;5.70;99.90;;;;;;5033162;28;21030;-85
2022/12/07 02:08:13;;;;;;;94.03;24.08;;;5.70;99.90;;;;;;5032318;28;20173;-86
2022/12/07 02:10:44;;;;;;;84.43;21.92;;;5.60;99.90;;;;;;5033759;28;20669;-86
2022/12/07 02:13:28;;;;;;;91.80;25.13;;;5.70;99.90;;;;;;5032349;28;20661;-86
2022/12/07 02:16:17;;;;;;;97.15;25.30;;;5.70;99.90;;;;;;5032472;28;20665;-86
2022/12/07 02:19:17;;;;;;;91.45;22.85;;;5.70;99.90;;;;;;5037023;28;20157;-86
2022/12/07 02:22:05;;;;;;;90.63;22.45;;;5.70;99.90;;;;;;5034443;28;20185;-86
2022/12/07 02:24:55;;;;;;;91.45;23.60;;;5.60;99.90;;;;;;5036208;28;20179;-87
2022/12/07 02:27:30;;;;;;;88.45;22.20;;;5.60;99.90;;;;;;5068093;28;20162;-86
2022/12/07 02:30:06;;;;;;;92.15;22.00;;;5.60;99.90;;;;;;5036666;28;20195;-87
2022/12/07 02:32:58;;;;;;;89.78;22.83;;;5.60;99.90;;;;;;5035794;28;20216;-86
2022/12/07 02:36:14;;;;;;;94.32;24.88;;;5.60;99.90;;;;;;4978820;28;20202;-86
2022/12/07 02:39:13;;;;;;;94.40;22.95;;;5.60;99.90;;;;;;5035768;28;20561;-86
2022/12/07 02:42:05;;;;;;;91.57;22.50;;;5.60;99.90;;;;;;4985300;28;20198;-87
2022/12/07 02:44:37;;;;;;;91.32;23.50;;;5.60;99.90;;;;;;5036941;28;20642;-86
2022/12/07 02:47:27;;;;;;;89.53;22.92;;;5.60;99.90;;;;;;5022909;28;20232;-86
2022/12/07 02:49:58;;;;;;;101.75;24.75;;;5.60;99.90;;;;;;5033321;28;20181;-86
2022/12/07 02:52:42;;;;;;;86.82;21.60;;;5.60;99.90;;;;;;5033283;28;20181;-86
2022/12/07 02:55:12;;;;;;;94.80;24.38;;;5.60;99.90;;;;;;5031886;28;20224;-86
2022/12/07 02:57:59;;;;;;;93.38;23.88;;;5.60;99.90;;;;;;5031984;28;20535;-86
2022/12/07 03:00:36;;;;;;;93.88;23.77;;;5.70;99.90;;;;;;5065439;28;20670;-86
2022/12/07 03:03:11;;;;;;;89.53;21.95;;;5.60;99.90;;;;;;5031833;28;20161;-86
2022/12/07 03:06:04;;;;;;;94.55;24.65;;;5.60;99.90;;;;;;5032411;28;20738;-86
2022/12/07 03:08:57;;;;;;;94.38;25.38;;;5.60;99.90;;;;;;5033057;28;20264;-86
2022/12/07 03:11:29;;;;;;;96.55;26.35;;;5.60;99.90;;;;;;5032920;28;20193;-86
2022/12/07 03:14:24;;;;;;;94.57;24.63;;;5.60;99.90;;;;;;5033230;28;20157;-86
2022/12/07 03:17:10;;;;;;;98.38;24.73;;;5.60;99.90;;;;;;5033139;28;20150;-86
2022/12/07 03:19:52;;;;;;;92.93;23.15;;;5.60;99.90;;;;;;5065736;28;20197;-86
2022/12/07 03:22:23;;;;;;;93.05;23.10;;;5.60;99.90;;;;;;5032172;28;20166;-86
2022/12/07 03:24:56;;;;;;;97.35;25.65;;;5.60;99.90;;;;;;5033109;28;20173;-86
2022/12/07 03:27:41;;;;;;;91.45;24.02;;;5.60;99.90;;;;;;5034080;28;20154;-86
2022/12/07 03:30:13;;;;;;;92.57;24.20;;;5.50;99.90;;;;;;5032080;28;20197;-86
2022/12/07 03:33:01;;;;;;;89.22;23.77;;;5.60;99.90;;;;;;5035528;28;20189;-86
2022/12/07 03:35:38;;;;;;;97.05;22.23;;;5.60;99.90;;;;;;5036642;28;20154;-86
2022/12/07 03:38:52;;;;;;;91.97;23.33;;;5.60;99.90;;;;;;5037139;28;20145;-86
2022/12/07 03:41:40;;;;;;;93.53;22.95;;;5.60;99.90;;;;;;5036777;28;20208;-86
2022/12/07 03:44:15;;;;;;;94.15;24.05;;;5.60;99.90;;;;;;5037223;28;20192;-86
2022/12/07 03:47:15;;;;;;;94.38;23.38;;;5.60;99.90;;;;;;5037063;28;20176;-86
2022/12/07 03:50:10;;;;;;;88.93;22.65;;;5.60;99.90;;;;;;5044634;28;20153;-86
2022/12/07 03:52:44;;;;;;;98.13;24.33;;;5.60;99.90;;;;;;5042972;28;20252;-86
2022/12/07 03:55:18;;;;;;;89.35;21.33;;;5.60;99.90;;;;;;5042998;28;20149;-86
2022/12/07 03:57:47;;;;;;;89.05;23.40;;;5.60;99.90;;;;;;5042207;28;20248;-86
2022/12/07 04:00:17;;;;;;;92.88;21.73;;;5.60;99.90;;;;;;5043207;28;20188;-87
2022/12/07 04:03:04;;;;;;;93.10;23.58;;;5.60;99.90;;;;;;5040707;28;20161;-86
2022/12/07 04:05:37;;;;;;;89.30;22.30;;;5.60;99.90;;;;;;5043349;28;20157;-87
2022/12/07 04:08:06;;;;;;;91.47;22.88;;;5.50;99.90;;;;;;5042291;28;20169;-87
2022/12/07 04:10:38;;;;;;;94.05;24.42;;;5.60;99.90;;;;;;5042426;28;20205;-87
2022/12/07 04:13:07;;;;;;;92.28;23.17;;;5.60;99.90;;;;;;5041068;28;20201;-87
2022/12/07 04:15:32;;;;;;;90.97;21.65;;;5.60;99.90;;;;;;5041627;28;20200;-86
2022/12/07 04:18:02;;;;;;;93.87;24.07;;;5.50;99.90;;;;;;5042960;28;20169;-87
2022/12/07 04:20:28;;;;;;;94.90;24.83;;;5.50;99.90;;;;;;5038645;28;20181;-86
2022/12/07 04:23:06;;;;;;;98.30;24.23;;;5.50;99.90;;;;;;5051011;28;20642;-86
2022/12/07 04:25:32;;;;;;;92.93;24.42;;;5.50;99.90;;;;;;5035653;28;20658;-86
2022/12/07 04:28:06;;;;;;;97.70;22.50;;;5.50;99.90;;;;;;5034862;28;20188;-86
2022/12/07 04:30:32;;;;;;;93.20;22.60;;;5.50;99.90;;;;;;5071484;28;20211;-87
2022/12/07 04:32:57;;;;;;;91.97;21.07;;;5.50;99.90;;;;;;5043952;28;20188;-86
2022/12/07 04:35:26;;;;;;;96.33;22.77;;;5.50;99.90;;;;;;5044230;28;20215;-87
2022/12/07 04:37:52;;;;;;;93.57;24.33;;;5.50;99.90;;;;;;5042537;28;20173;-87
2022/12/07 04:40:38;;;;;;;89.10;22.17;;;5.50;99.90;;;;;;5043333;28;20177;-86
2022/12/07 04:43:06;;;;;;;89.03;20.85;;;5.50;99.90;;;;;;5042768;28;20157;-87
2022/12/07 04:46:39;;;;;;;90.18;21.70;;;5.40;99.90;;;;;;5043083;28;20173;-87
2022/12/07 04:48:46;;;;;;;95.25;22.20;;;5.50;99.90;;;;;;5038475;28;20615;-86
2022/12/07 04:51:39;;;;;;;88.40;22.10;;;5.40;99.90;;;;;;5042390;28;20189;-87
2022/12/07 04:54:05;;;;;;;95.35;24.48;;;5.40;99.90;;;;;;5043750;28;20149;-87
2022/12/07 04:56:35;;;;;;;91.90;22.73;;;5.30;99.90;;;;;;5042173;28;20165;-86
2022/12/07 04:59:08;;;;;;;92.80;23.67;;;5.30;99.90;;;;;;5041398;28;21060;-87
2022/12/07 05:01:37;;;;;;;88.43;22.67;;;5.40;99.90;;;;;;5041370;28;20215;-87
2022/12/07 05:04:12;;;;;;;92.13;24.92;;;5.40;99.90;;;;;;5042917;28;20220;-86
2022/12/07 05:06:37;;;;;;;92.50;22.52;;;5.40;99.90;;;;;;5176089;22;20253;-85
2022/12/07 05:09:04;;;;;;;89.50;22.03;;;5.30;99.90;;;;;;5082805;28;20160;-86
2022/12/07 05:11:39;;;;;;;96.50;22.48;;;5.40;99.90;;;;;;5082227;28;20209;-86
2022/12/07 05:14:17;;;;;;;91.15;22.20;;;5.30;99.90;;;;;;5082705;28;20160;-85
2022/12/07 05:16:45;;;;;;;93.75;22.98;;;5.20;99.90;;;;;;5083285;28;20148;-85
2022/12/07 05:19:11;;;;;;;93.35;22.23;;;5.20;99.90;;;;;;5082630;28;20187;-85
2022/12/07 05:21:37;;;;;;;99.57;22.48;;;5.30;99.90;;;;;;5081910;28;20191;-84
2022/12/07 05:24:03;;;;;;;89.63;22.48;;;5.20;99.90;;;;;;5080930;28;20168;-85
2022/12/07 05:26:29;;;;;;;89.15;20.33;;;5.20;99.90;;;;;;5082925;28;20178;-84
2022/12/07 05:28:56;;;;;;;92.87;21.70;;;5.20;99.90;;;;;;5082692;28;20476;-85
2022/12/07 05:31:22;;;;;;;90.38;21.90;;;5.20;99.90;;;;;;5081635;28;20236;-84
2022/12/07 05:33:48;;;;;;;96.15;22.13;;;5.20;99.90;;;;;;5080360;28;20225;-85
2022/12/07 05:36:14;;;;;;;91.83;21.97;;;5.20;99.90;;;;;;5080185;28;20747;-85
2022/12/07 05:38:41;;;;;;;92.32;21.98;;;5.30;99.90;;;;;;5081788;28;20398;-85
2022/12/07 05:42:11;;;;;;;91.82;22.02;;;5.30;99.90;;;;;;5080933;28;20188;-86
2022/12/07 05:43:53;;;;;;;100.97;25.58;;;5.30;99.90;;;;;;5081299;28;20164;-85
2022/12/07 05:46:19;;;;;;;93.17;22.17;;;5.30;99.90;;;;;;5081656;28;20198;-85
2022/12/07 05:48:44;;;;;;;90.77;20.73;;;5.30;99.90;;;;;;5081704;28;20698;-85
2022/12/07 05:51:10;;;;;;;91.70;23.53;;;5.30;99.90;;;;;;5079963;28;20656;-86
2022/12/07 05:53:36;;;;;;;93.83;22.80;;;5.30;99.90;;;;;;5081599;28;20170;-85
2022/12/07 05:56:01;;;;;;;90.07;23.60;;;5.30;99.90;;;;;;5081452;28;20164;-85
2022/12/07 06:01:11;;;;;;;93.45;23.38;;;5.30;99.90;;;;;;5081453;28;20202;-84
2022/12/07 06:03:37;;;;;;;95.47;24.30;;;5.30;99.90;;;;;;5082191;28;20164;-85
2022/12/07 06:06:05;;;;;;;93.03;24.03;;;5.30;99.90;;;;;;5082170;28;20183;-85
2022/12/07 06:08:30;;;;;;;91.57;23.80;;;5.30;99.90;;;;;;5082179;28;20186;-84
2022/12/07 06:13:40;;;;;;;92.53;22.55;;;5.30;99.90;;;;;;5087066;28;20155;-86
2022/12/07 06:16:06;;;;;;;91.70;23.10;;;5.30;99.90;;;;;;5088486;28;20156;-85
2022/12/07 06:18:32;;;;;;;96.57;21.65;;;5.30;99.90;;;;;;5087952;28;20190;-85
2022/12/07 06:20:57;;;;;;;93.90;23.60;;;5.30;99.90;;;;;;5085004;28;20187;-86
2022/12/07 06:23:23;;;;;;;91.40;24.90;;;5.20;99.90;;;;;;5083991;28;20229;-85
2022/12/07 06:25:48;;;;;;;93.60;23.17;;;5.20;99.90;;;;;;5082722;28;20168;-86
2022/12/07 06:28:14;;;;;;;91.80;23.03;;;5.20;99.90;;;;;;5083989;28;20163;-86
2022/12/07 06:30:40;;;;;;;88.83;21.20;;;5.10;99.90;;;;;;5083064;28;20251;-85
2022/12/07 06:33:06;;;;;;;90.77;22.63;;;5.10;99.90;;;;;;5081621;28;20206;-85
2022/12/07 06:35:33;;;;;;;99.73;26.90;;;5.10;99.90;;;;;;5081607;28;20163;-85
2022/12/07 06:37:59;;;;;;;91.78;23.48;;;5.10;99.90;;;;;;5081758;28;20482;-84
2022/12/07 06:40:24;;;;;;;94.37;24.40;;;5.10;99.90;;;;;;5081568;28;20211;-86
2022/12/07 06:42:50;;;;;;;91.80;22.87;;;5.10;99.90;;;;;;5082900;28;20413;-85
2022/12/07 06:45:16;;;;;;;96.03;23.97;;;5.10;99.90;;;;;;5082648;28;20581;-85
2022/12/07 06:47:41;;;;;;;86.70;20.23;;;5.10;99.90;;;;;;5081198;28;20175;-86
2022/12/07 06:50:07;;;;;;;88.60;21.00;;;5.10;99.90;;;;;;5082805;28;20183;-84
2022/12/07 06:52:33;;;;;;;90.55;20.92;;;5.20;99.90;;;;;;5082641;28;20222;-84
2022/12/07 06:54:59;;;;;;;87.05;21.77;;;5.20;99.90;;;;;;5081303;28;20223;-84
2022/12/07 06:57:25;;;;;;;89.10;23.20;;;5.20;99.90;;;;;;5081507;28;20167;-84
2022/12/07 06:59:51;;;;;;;91.20;21.38;;;5.20;99.90;;;;;;5082418;28;20152;-85
2022/12/07 07:02:17;;;;;;;85.67;21.97;;;5.30;99.90;;;;;;5082600;28;20594;-85
2022/12/07 07:04:43;;;;;;;88.70;22.52;;;5.30;99.90;;;;;;5082159;28;20187;-85
2022/12/07 07:07:09;;;;;;;90.87;24.20;;;5.20;99.90;;;;;;5082825;28;20191;-85
2022/12/07 07:09:35;;;;;;;96.10;23.77;;;5.20;99.90;;;;;;5083642;28;20172;-85
2022/12/07 07:12:00;;;;;;;97.30;22.83;;;5.20;99.90;;;;;;5085423;28;20188;-85
2022/12/07 07:14:26;;;;;;;93.13;22.60;;;5.20;99.90;;;;;;5084985;28;20164;-85
2022/12/07 07:16:52;;;;;;;91.17;22.27;;;5.20;99.90;;;;;;5084472;28;20195;-86
2022/12/07 07:19:17;;;;;;;94.33;21.47;;;5.20;99.90;;;;;;5085069;28;20203;-86
2022/12/07 07:21:43;;;;;;;92.80;26.27;;;5.20;99.90;;;;;;5085069;28;20421;-84
2022/12/07 07:24:10;;;;;;;92.77;24.43;;;5.20;99.90;;;;;;5085890;28;20164;-85
2022/12/07 07:26:35;;;;;;;88.63;22.20;;;5.20;99.90;;;;;;5084689;28;20175;-85
2022/12/07 07:29:01;;;;;;;96.30;25.50;;;5.20;99.90;;;;;;5085410;28;20233;-85
2022/12/07 07:31:26;;;;;;;96.10;24.13;;;5.20;99.90;;;;;;5089403;28;20288;-87
2022/12/07 07:33:52;;;;;;;104.37;24.17;;;5.20;99.90;;;;;;5090303;28;20187;-87
2022/12/07 07:36:18;;;;;;;94.23;22.60;;;5.30;99.90;;;;;;5089213;28;20156;-86
2022/12/07 07:38:44;;;;;;;94.33;22.90;;;5.30;99.90;;;;;;5088598;28;20164;-86
2022/12/07 07:41:09;;;;;;;96.83;23.07;;;5.30;99.90;;;;;;5087665;28;20175;-86
2022/12/07 07:43:35;;;;;;;90.90;23.10;;;5.30;99.90;;;;;;5085900;28;20175;-86
2022/12/07 07:46:01;;;;;;;89.63;23.00;;;5.30;99.90;;;;;;5088153;28;20645;-87
2022/12/07 07:48:26;;;;;;;91.80;22.57;;;5.30;99.90;;;;;;5090536;28;20170;-86
2022/12/07 07:50:52;;;;;;;101.73;22.90;;;5.30;99.90;;;;;;5088540;28;20183;-86
2022/12/07 07:53:17;;;;;;;89.00;21.50;;;5.30;99.90;;;;;;5085628;28;20219;-86
2022/12/07 07:55:56;;;;;;;89.77;21.27;;;5.20;99.90;;;;;;5088625;28;20221;-86
2022/12/07 07:58:21;;;;;;;91.70;23.00;;;5.30;99.90;;;;;;5087650;28;20164;-85
2022/12/07 08:00:47;;;;;;;101.33;24.53;;;5.30;99.90;;;;;;5084914;28;20209;-85
2022/12/07 08:03:13;;;;;;;88.90;21.20;;;5.30;99.90;;;;;;5086120;28;20171;-86
2022/12/07 08:05:38;;;;;;;90.30;21.87;;;5.40;99.90;;;;;;5085797;28;20576;-86
2022/12/07 08:08:04;;;;;;;92.57;22.87;;;5.30;99.90;;;;;;5083477;28;20192;-85
2022/12/07 08:10:31;;;;;;;93.67;22.17;;;5.40;99.90;;;;;;5086546;28;20193;-85
2022/12/07 08:13:16;;;;;;;96.10;22.15;;;5.40;99.90;;;;;;5081931;28;20475;-85
2022/12/07 08:15:46;;;;;;;97.00;21.17;;;5.50;99.90;;;;;;5083924;28;20163;-86
2022/12/07 08:18:13;;;;;;;94.80;19.77;;;5.60;99.90;;;;;;5081699;28;20183;-86
2022/12/07 08:20:39;;;;;;;88.75;22.65;;;5.50;99.90;;;;;;5082968;28;20176;-85
2022/12/07 08:23:06;;;;;;;94.47;20.33;;;5.50;99.90;;;;;;5083599;28;20321;-86
2022/12/07 08:25:33;;;;;;;89.90;20.90;;;5.60;99.90;;;;;;5083167;28;20164;-84
2022/12/07 08:28:00;;;;;;;82.93;18.58;;;5.50;99.90;;;;;;5082042;28;20178;-85
2022/12/07 08:30:26;;;;;;;86.70;19.15;;;5.50;99.90;;;;;;5081118;28;20245;-85
2022/12/07 08:32:52;;;;;;;86.57;18.90;;;5.50;99.90;;;;;;5082127;28;20178;-85
2022/12/07 08:35:17;;;;;;;91.17;20.10;;;5.50;99.90;;;;;;5081607;28;20255;-85
2022/12/07 08:37:43;;;;;;;90.50;20.43;;;5.60;99.90;;;;;;5082126;28;20175;-85
2022/12/07 08:40:14;;;;;;;89.10;20.20;;;5.60;99.90;;;;;;5082629;28;20183;-85
2022/12/07 08:42:41;;;;;;;86.65;18.85;;;5.60;99.90;;;;;;5081625;28;20312;-85
2022/12/07 08:45:09;;;;;;;89.65;19.48;;;5.60;99.90;;;;;;5082193;28;20158;-85
2022/12/07 08:47:38;;;;;;;89.05;19.52;;;5.60;99.90;;;;;;5081589;28;20167;-84
2022/12/07 08:50:06;;;;;;;90.30;20.50;;;5.70;99.90;;;;;;5082048;28;20260;-85
2022/12/07 08:52:33;;;;;;;87.70;19.35;;;5.70;99.90;;;;;;5081306;28;20188;-85
2022/12/07 08:55:00;;;;;;;86.60;21.25;;;5.70;99.90;;;;;;5081434;28;20195;-85
2022/12/07 08:57:28;;;;;;;86.95;19.33;;;5.80;99.90;;;;;;5082149;28;20156;-85
2022/12/07 08:59:54;;;;;;;82.63;19.20;;;5.70;99.90;;;;;;5082138;28;20222;-85
2022/12/07 09:02:19;;;;;;;90.40;20.50;;;5.80;99.90;;;;;;5081056;28;20167;-85
2022/12/07 09:04:45;;;;;;;87.10;21.58;;;5.80;99.90;;;;;;5081250;28;20236;-85
2022/12/07 09:07:11;;;;;;;87.90;21.10;;;5.80;99.90;;;;;;5082726;28;20201;-85
2022/12/07 09:09:37;;;;;;;88.47;20.23;;;5.80;99.90;;;;;;5081212;28;20168;-86
2022/12/07 09:12:03;;;;;;;86.10;20.00;;;5.80;99.90;;;;;;5081306;28;20538;-85
2022/12/07 09:14:29;;;;;;;88.40;21.08;;;5.70;99.90;;;;;;5081658;28;20167;-85
2022/12/07 09:16:55;;;;;;;86.23;20.83;;;5.80;99.90;;;;;;5082582;28;20182;-85
2022/12/07 09:19:20;;;;;;;86.77;20.50;;;5.90;99.90;;;;;;5082919;28;20390;-85
2022/12/07 09:21:46;;;;;;;88.87;23.13;;;5.90;99.90;;;;;;5084428;28;20430;-85
2022/12/07 09:24:13;;;;;;;88.77;20.87;;;6.00;99.90;;;;;;5084502;28;20232;-86
2022/12/07 09:26:40;;;;;;;87.90;18.83;;;6.10;99.90;;;;;;5085316;28;20176;-86
2022/12/07 09:29:06;;;;;;;90.65;20.15;;;6.10;99.90;;;;;;5082030;28;20168;-85
2022/12/07 09:31:31;;;;;;;88.90;20.23;;;6.10;99.90;;;;;;5081697;28;20233;-86
2022/12/07 09:33:59;;;;;;;88.47;20.10;;;6.20;99.90;;;;;;5083073;28;20509;-85
2022/12/07 09:36:26;;;;;;;87.95;20.42;;;6.20;99.90;;;;;;5084151;28;20168;-85
2022/12/07 09:38:51;;;;;;;92.07;19.15;;;6.20;99.90;;;;;;5084557;28;20159;-85
2022/12/07 09:41:17;;;;;;;87.87;20.73;;;6.30;99.90;;;;;;5085885;28;20183;-85
2022/12/07 09:43:43;;;;;;;83.60;18.70;;;6.30;99.90;;;;;;5084265;28;20168;-85
2022/12/07 09:46:17;;;;;;;83.80;19.60;;;6.30;99.90;;;;;;5082878;28;20164;-86
2022/12/07 09:48:44;;;;;;;90.40;22.80;;;6.30;99.90;;;;;;5082075;28;20158;-84
2022/12/07 09:51:22;;;;;;;85.85;22.60;;;6.30;99.90;;;;;;5083250;28;20230;-84
2022/12/07 09:53:48;;;;;;;85.53;18.80;;;6.30;99.90;;;;;;5085747;28;20168;-84
2022/12/07 09:56:16;;;;;;;84.20;19.88;;;6.20;99.90;;;;;;5083878;28;20171;-85
2022/12/07 09:58:43;;;;;;;86.68;20.73;;;6.20;99.90;;;;;;5084671;28;20195;-85
2022/12/07 10:01:11;;;;;;;87.60;18.52;;;6.20;99.90;;;;;;5085116;28;20184;-86
2022/12/07 10:03:39;;;;;;;86.10;18.50;;;6.30;99.90;;;;;;5086664;28;20164;-86
2022/12/07 10:06:06;;;;;;;84.18;18.02;;;6.30;99.90;;;;;;5087122;28;20195;-86
2022/12/07 10:08:32;;;;;;;85.25;19.27;;;6.30;99.90;;;;;;5087069;28;20247;-86
2022/12/07 10:10:58;;;;;;;82.43;18.63;;;6.30;99.90;;;;;;5086827;28;20238;-86
2022/12/07 10:13:53;;;;;;;90.30;18.47;;;6.30;99.90;;;;;;5085933;28;20188;-86
2022/12/07 10:16:39;;;;;;;99.45;22.77;;;6.40;99.90;;;;;;5067824;28;20402;-86
2022/12/07 10:19:36;;;;;;;85.50;19.95;;;6.40;99.90;;;;;;5086095;28;20235;-86
2022/12/07 10:22:12;;;;;;;83.60;17.20;;;6.40;99.90;;;;;;5083851;28;20172;-85
2022/12/07 10:24:42;;;;;;;89.65;21.58;;;6.50;99.90;;;;;;5080162;28;20270;-85
2022/12/07 10:27:26;;;;;;;89.70;20.88;;;6.50;99.90;;;;;;5080296;28;20213;-86
2022/12/07 10:29:52;;;;;;;80.50;18.45;;;6.40;99.90;;;;;;5080973;28;20235;-86
2022/12/07 10:32:18;;;;;;;79.90;18.90;;;6.40;99.90;;;;;;5080910;28;20586;-85
2022/12/07 10:34:44;;;;;;;81.53;17.60;;;6.40;99.90;;;;;;5080933;28;20187;-85
2022/12/07 10:37:13;;;;;;;79.03;18.17;;;6.40;99.90;;;;;;5082039;28;20171;-85
2022/12/07 10:39:49;;;;;;;81.35;19.23;;;6.40;99.90;;;;;;5080258;28;20160;-86
2022/12/07 10:42:21;;;;;;;85.57;18.67;;;6.30;99.90;;;;;;5087287;28;20174;-85
2022/12/07 10:44:48;;;;;;;89.55;19.58;;;6.30;99.90;;;;;;5089127;28;20599;-85
2022/12/07 10:47:36;;;;;;;77.30;16.35;;;6.40;99.90;;;;;;5087803;28;20184;-85
2022/12/07 10:50:17;;;;;;;79.40;13.32;;;6.40;99.90;;;;;;5088816;28;20238;-85
2022/12/07 10:53:13;;;;;;;77.35;13.40;;;6.50;99.90;;;;;;5088929;28;20179;-86
2022/12/07 10:56:09;;;;;;;80.18;15.68;;;6.60;99.90;;;;;;5091317;28;20183;-86
2022/12/07 10:58:56;;;;;;;86.85;14.35;;;6.60;99.90;;;;;;5092245;28;20175;-86
2022/12/07 11:01:33;;;;;;;78.13;15.23;;;6.60;99.90;;;;;;5089652;28;20206;-85
2022/12/07 11:04:44;;;;;;;81.50;12.70;;;6.60;99.90;;;;;;5091340;28;20170;-86
2022/12/07 11:07:56;;;;;;;85.75;12.10;;;6.60;99.90;;;;;;5250190;22;20574;-86
2022/12/07 11:11:18;;;;;;;74.88;11.25;;;6.60;99.90;;;;;;5095216;28;20199;-86
2022/12/07 11:18:06;;;;;;;75.70;11.63;;;6.60;99.90;;;;;;4956343;28;20186;-86
2022/12/07 11:21:35;;;;;;;78.30;10.80;;;6.60;99.90;;;;;;5071061;22;20222;-87
2022/12/07 11:24:47;;;;;;;;;;;;;;;;;;;;;
2022/12/07 11:27:50;;;;;;;73.60;9.60;;;6.70;99.90;;;;;;5085191;28;20258;-86
2022/12/07 11:35:03;;;;;;;75.28;10.30;;;6.80;99.90;;;;;;4907041;29;20204;-86
2022/12/07 11:38:17;;;;;;;73.07;10.18;;;6.80;99.90;;;;;;4886913;29;20218;-87
2022/12/07 11:40:54;;;;;;;75.38;10.13;;;6.90;99.90;;;;;;4867590;29;20214;-87
2022/12/07 11:43:37;;;;;;;73.40;10.48;;;7.00;99.90;;;;;;4998619;28;20188;-86
2022/12/07 11:46:48;;;;;;;75.60;12.20;;;7.00;99.90;;;;;;5004958;28;20174;-87
2022/12/07 11:49:48;;;;;;;77.95;11.82;;;7.10;99.90;;;;;;4996420;28;20536;-86
2022/12/07 11:52:45;;;;;;;74.63;11.20;;;7.30;99.90;;;;;;5072863;28;20226;-86
2022/12/07 11:55:42;;;;;;;78.10;8.73;;;7.30;99.90;;;;;;5079113;28;20158;-86
2022/12/07 11:58:35;;;;;;;82.13;9.70;;;7.40;99.90;;;;;;5063286;28;20238;-87
2022/12/07 12:01:47;;;;;;;76.72;11.25;;;7.40;99.90;;;;;;5078680;28;20211;-86
2022/12/07 12:05:01;;;;;;;74.93;10.88;;;7.30;99.90;;;;;;5017541;28;20174;-86
2022/12/07 12:07:45;;;;;;;78.55;11.48;;;7.40;99.90;;;;;;5042485;28;20210;-86
2022/12/07 12:10:40;;;;;;;76.88;11.80;;;7.40;99.90;;;;;;5077369;28;20218;-86
2022/12/07 12:13:45;;;;;;;73.50;10.32;;;7.30;99.90;;;;;;5074691;28;20230;-86
2022/12/07 12:16:20;;;;;;;75.30;11.65;;;7.20;99.90;;;;;;5179477;22;20224;-85
2022/12/07 12:19:04;;;;;;;77.30;12.20;;;7.10;99.90;;;;;;5056641;28;20164;-85
2022/12/07 12:21:44;;;;;;;78.38;13.65;;;7.10;99.90;;;;;;5058839;28;20215;-85
2022/12/07 12:24:25;;;;;;;76.90;11.80;;;7.10;99.90;;;;;;5077213;28;20494;-86
2022/12/07 12:27:07;;;;;;;85.25;13.73;;;7.20;99.90;;;;;;5077170;28;20148;-85
2022/12/07 12:29:43;;;;;;;77.50;11.07;;;7.40;99.90;;;;;;5059561;28;20725;-85
2022/12/07 12:32:41;;;;;;;77.82;10.13;;;7.40;99.90;;;;;;5077565;28;20733;-86
2022/12/07 12:35:43;;;;;;;78.13;10.43;;;7.30;99.90;;;;;;5077563;28;20609;-85
2022/12/07 12:38:28;;;;;;;75.53;10.63;;;7.20;99.90;;;;;;5059933;28;20205;-85
2022/12/07 12:40:58;;;;;;;83.20;12.27;;;7.10;99.90;;;;;;5059106;28;20269;-85
2022/12/07 12:43:54;;;;;;;77.85;10.68;;;7.10;99.90;;;;;;5077174;28;20626;-85
2022/12/07 12:46:29;;;;;;;75.97;12.45;;;7.10;99.90;;;;;;5077058;28;20148;-85
2022/12/07 12:49:14;;;;;;;79.90;10.43;;;7.00;99.90;;;;;;5059319;28;20521;-85
2022/12/07 12:51:42;;;;;;;80.35;10.00;;;7.00;99.90;;;;;;5059629;28;20192;-85
2022/12/07 12:54:21;;;;;;;73.88;9.82;;;6.80;99.90;;;;;;5059238;28;20171;-85
2022/12/07 12:56:53;;;;;;;78.07;11.25;;;6.80;99.90;;;;;;5064824;28;20156;-86
2022/12/07 12:59:22;;;;;;;77.25;10.55;;;6.80;99.90;;;;;;5066671;28;20171;-86
2022/12/07 13:02:11;;;;;;;76.68;11.07;;;6.80;99.90;;;;;;5065010;28;20259;-85
2022/12/07 13:05:03;;;;;;;80.82;11.75;;;6.80;99.90;;;;;;5082998;28;20159;-85
2022/12/07 13:07:47;;;;;;;83.88;11.55;;;6.90;99.90;;;;;;5065366;28;20172;-86
2022/12/07 13:10:30;;;;;;;74.47;11.13;;;6.90;99.90;;;;;;5081380;28;20183;-85
2022/12/07 13:12:59;;;;;;;79.03;12.75;;;7.00;99.90;;;;;;5079106;28;20198;-85
2022/12/07 13:15:35;;;;;;;76.32;11.07;;;7.00;99.90;;;;;;5061678;28;20176;-85
2022/12/07 13:21:06;;;;;;;82.45;12.48;;;6.90;99.90;;;;;;5215468;22;20224;-86
2022/12/07 13:23:51;;;;;;;80.13;12.50;;;7.00;99.90;;;;;;5065121;28;20195;-86
2022/12/07 13:26:46;;;;;;;77.72;11.95;;;7.00;99.90;;;;;;5081828;28;20152;-86
2022/12/07 13:29:32;;;;;;;75.47;11.07;;;7.10;99.90;;;;;;5079714;28;20171;-85
2022/12/07 13:32:04;;;;;;;76.82;12.10;;;7.00;99.90;;;;;;5079429;28;20222;-86
2022/12/07 13:34:38;;;;;;;79.90;11.60;;;7.10;99.90;;;;;;5082714;28;20171;-85
2022/12/07 13:37:29;;;;;;;74.32;11.35;;;7.10;99.90;;;;;;5081999;28;20172;-86
2022/12/07 13:40:19;;;;;;;83.78;12.35;;;7.10;99.90;;;;;;5063872;28;20191;-85